Aviation Digital Data Service (ADDS)

Output produced by METARs form (1313 UTC 26 March 2019)
found at http://www.aviationweather.gov/metar/data/
 
TAF HADR 260930Z 2612/2718 34006KT 9999 FEW040 FEW090 
     BECMG 2612/2618 32007KT FEW040 
     BECMG 2619/2623 06004KT FEW090
       
HAAB 261300Z 11008KT 9999 SCT025 28/04 Q1024
TAF HAAB 260930Z 2612/2718 12010KT 9999 FEW040 SCT090 
     BECMG 2612/2617 12009KT SCT080 
     BECMG 2618/2622 09006KT FEW040